Time;durP1;ratioP1;P1;durP2;ratioP2;P2;SDS_P1;SDS_P2;PMS_P1;PMS_P2;Temp;Humidity;BMP_temperature;BMP_pressure;BME280_temperature;BME280_humidity;BME280_pressure;Samples;Min_cycle;Max_cycle;Signal;HPM_P1;HPM_P2
2022/01/31 00:02:00;;;;;;;10.93;4.23;;;;;;;;;;5020192;28;20205;-78
2022/01/31 00:04:25;;;;;;;5.67;3.10;;;;;;;;;;5024146;28;20202;-78
2022/01/31 00:06:51;;;;;;;8.13;3.60;;;;;;;;;;5019351;28;20206;-78
2022/01/31 00:09:17;;;;;;;7.70;3.63;;;;;;;;;;5015432;28;20170;-78
2022/01/31 00:11:46;;;;;;;9.03;3.67;;;;;;;;;;5013278;28;20199;-79
2022/01/31 00:14:28;;;;;;;7.23;3.20;;;;;;;;;;5018337;28;20187;-79
2022/01/31 00:16:53;;;;;;;8.33;2.93;;;;;;;;;;5043224;28;20178;-79
2022/01/31 00:19:18;;;;;;;11.30;3.47;;;;;;;;;;5014578;28;20213;-79
2022/01/31 00:21:44;;;;;;;7.17;3.03;;;;;;;;;;5014424;28;20182;-79
2022/01/31 00:24:10;;;;;;;11.07;3.37;;;;;;;;;;5014674;28;20214;-79
2022/01/31 00:26:36;;;;;;;8.67;3.70;;;;;;;;;;5006401;28;20171;-79
2022/01/31 00:29:01;;;;;;;9.13;3.10;;;;;;;;;;5028863;28;20177;-79
2022/01/31 00:31:26;;;;;;;5.80;2.77;;;;;;;;;;5013375;28;20175;-79
2022/01/31 00:33:51;;;;;;;4.60;2.73;;;;;;;;;;5021001;28;20211;-79
2022/01/31 00:36:17;;;;;;;5.60;2.87;;;;;;;;;;5016611;28;20264;-79
2022/01/31 00:38:42;;;;;;;8.93;3.33;;;;;;;;;;5030470;28;20231;-79
2022/01/31 00:41:07;;;;;;;12.10;3.77;;;;;;;;;;4995180;28;20274;-79
2022/01/31 00:43:35;;;;;;;5.77;3.50;;;;;;;;;;4986650;28;20171;-79
2022/01/31 00:46:03;;;;;;;7.60;3.67;;;;;;;;;;4995886;28;20246;-79
2022/01/31 00:48:33;;;;;;;8.20;3.23;;;;;;;;;;5017246;28;20172;-80
2022/01/31 00:50:59;;;;;;;9.30;3.63;;;;;;;;;;4999943;28;20391;-79
2022/01/31 00:53:24;;;;;;;6.43;3.30;;;;;;;;;;5017531;28;20180;-79
2022/01/31 00:55:49;;;;;;;5.73;3.40;;;;;;;;;;4996031;28;20187;-79
2022/01/31 00:58:14;;;;;;;6.17;2.97;;;;;;;;;;4997616;28;20190;-79
2022/01/31 01:00:40;;;;;;;8.10;3.40;;;;;;;;;;4991722;28;20246;-79
2022/01/31 01:03:05;;;;;;;6.80;3.43;;;;;;;;;;5001585;28;20171;-79
2022/01/31 01:05:30;;;;;;;9.77;3.40;;;;;;;;;;4993110;28;20265;-79
2022/01/31 01:07:55;;;;;;;5.80;2.80;;;;;;;;;;4994577;28;20179;-79
2022/01/31 01:10:20;;;;;;;12.33;3.37;;;;;;;;;;4994818;28;20230;-79
2022/01/31 01:12:46;;;;;;;10.47;3.73;;;;;;;;;;4994475;28;20175;-79
2022/01/31 01:15:11;;;;;;;6.97;2.67;;;;;;;;;;4993829;28;20259;-79
2022/01/31 01:17:37;;;;;;;4.90;2.50;;;;;;;;;;5016995;28;20264;-79
2022/01/31 01:20:03;;;;;;;8.40;3.93;;;;;;;;;;5000574;28;20199;-79
2022/01/31 01:22:28;;;;;;;5.57;3.73;;;;;;;;;;4992889;28;20185;-79
2022/01/31 01:24:53;;;;;;;11.97;3.67;;;;;;;;;;4993785;28;20290;-79
2022/01/31 01:27:20;;;;;;;6.30;3.20;;;;;;;;;;4995823;28;20179;-79
2022/01/31 01:29:46;;;;;;;10.53;3.40;;;;;;;;;;4987411;28;20183;-79
2022/01/31 01:32:11;;;;;;;15.37;5.33;;;;;;;;;;5000495;28;20203;-79
2022/01/31 01:34:36;;;;;;;10.17;4.63;;;;;;;;;;4994624;28;20289;-79
2022/01/31 01:37:03;;;;;;;8.70;3.83;;;;;;;;;;4997039;28;20183;-79
2022/01/31 01:39:28;;;;;;;7.47;4.97;;;;;;;;;;4983769;28;20238;-79
2022/01/31 01:41:53;;;;;;;8.13;4.00;;;;;;;;;;4998090;28;20183;-79
2022/01/31 01:44:19;;;;;;;9.13;3.30;;;;;;;;;;4992504;28;20249;-79
2022/01/31 01:46:44;;;;;;;6.30;3.97;;;;;;;;;;4992815;28;20206;-79
2022/01/31 01:49:09;;;;;;;8.27;4.20;;;;;;;;;;4992565;28;20191;-79
2022/01/31 01:51:36;;;;;;;11.43;4.27;;;;;;;;;;4994834;28;20183;-79
2022/01/31 01:54:02;;;;;;;4.87;3.17;;;;;;;;;;4996683;28;20175;-80
2022/01/31 01:56:28;;;;;;;9.43;3.40;;;;;;;;;;4991085;28;20211;-79
2022/01/31 01:58:53;;;;;;;9.53;3.83;;;;;;;;;;5005621;28;20179;-79
2022/01/31 02:01:18;;;;;;;5.03;2.77;;;;;;;;;;5009512;28;20183;-79
2022/01/31 02:03:43;;;;;;;6.67;2.93;;;;;;;;;;4992070;28;20176;-79
2022/01/31 02:06:09;;;;;;;14.63;4.40;;;;;;;;;;5005075;28;20206;-79
2022/01/31 02:08:41;;;;;;;10.33;4.10;;;;;;;;;;4991681;28;20241;-79
2022/01/31 02:11:08;;;;;;;5.43;3.50;;;;;;;;;;4997024;28;20263;-79
2022/01/31 02:13:34;;;;;;;10.20;3.50;;;;;;;;;;4999553;28;20587;-79
2022/01/31 02:15:59;;;;;;;9.13;3.53;;;;;;;;;;4998508;28;20215;-79
2022/01/31 02:18:27;;;;;;;6.57;3.47;;;;;;;;;;4997704;28;20214;-79
2022/01/31 02:20:52;;;;;;;8.30;4.17;;;;;;;;;;4997172;28;20171;-79
2022/01/31 02:23:18;;;;;;;13.90;3.87;;;;;;;;;;4990197;28;20179;-79
2022/01/31 02:25:58;;;;;;;5.43;2.90;;;;;;;;;;4995871;28;20210;-79
2022/01/31 02:28:26;;;;;;;6.37;3.30;;;;;;;;;;4996369;28;20202;-79
2022/01/31 02:30:51;;;;;;;8.33;2.93;;;;;;;;;;4990315;28;20176;-79
2022/01/31 02:33:18;;;;;;;9.63;3.60;;;;;;;;;;4993410;28;20294;-79
2022/01/31 02:35:44;;;;;;;7.37;2.73;;;;;;;;;;4992299;28;20202;-79
2022/01/31 02:38:09;;;;;;;6.63;2.60;;;;;;;;;;4998131;28;20183;-79
2022/01/31 02:40:34;;;;;;;6.33;3.50;;;;;;;;;;5000284;28;20227;-79
2022/01/31 02:42:59;;;;;;;6.70;3.57;;;;;;;;;;4992918;28;20214;-79
2022/01/31 02:45:24;;;;;;;9.90;3.67;;;;;;;;;;4998003;28;20263;-79
2022/01/31 02:47:54;;;;;;;6.87;3.17;;;;;;;;;;5002682;28;20183;-79
2022/01/31 02:50:19;;;;;;;6.03;2.83;;;;;;;;;;4997034;28;20167;-79
2022/01/31 02:52:48;;;;;;;6.73;3.03;;;;;;;;;;4984053;28;20206;-79
2022/01/31 02:55:14;;;;;;;8.50;3.10;;;;;;;;;;4998513;28;20183;-79
2022/01/31 02:57:39;;;;;;;9.00;3.23;;;;;;;;;;4988353;28;20183;-79
2022/01/31 03:00:07;;;;;;;7.77;3.33;;;;;;;;;;5002048;28;20186;-79
2022/01/31 03:02:33;;;;;;;5.40;2.97;;;;;;;;;;4985211;28;20211;-79
2022/01/31 03:04:58;;;;;;;9.93;3.87;;;;;;;;;;4997060;28;20273;-79
2022/01/31 03:07:23;;;;;;;7.77;3.03;;;;;;;;;;4996670;28;20179;-79
2022/01/31 03:09:48;;;;;;;8.03;3.97;;;;;;;;;;4994915;28;20193;-79
2022/01/31 03:12:14;;;;;;;8.27;3.20;;;;;;;;;;4999049;28;20306;-79
2022/01/31 03:14:42;;;;;;;9.63;3.50;;;;;;;;;;5000218;28;20197;-79
2022/01/31 03:17:08;;;;;;;7.93;3.70;;;;;;;;;;4997547;28;20186;-79
2022/01/31 03:19:37;;;;;;;10.17;3.53;;;;;;;;;;5014178;28;20171;-79
2022/01/31 03:22:03;;;;;;;9.67;3.53;;;;;;;;;;4996773;28;20178;-79
2022/01/31 03:24:28;;;;;;;4.90;3.50;;;;;;;;;;4994996;28;20501;-79
2022/01/31 03:26:53;;;;;;;6.87;2.60;;;;;;;;;;4994493;28;20193;-79
2022/01/31 03:29:18;;;;;;;6.43;3.33;;;;;;;;;;5005199;28;20223;-78
2022/01/31 03:31:43;;;;;;;9.80;4.00;;;;;;;;;;4999440;28;20242;-78
2022/01/31 03:34:09;;;;;;;7.53;3.33;;;;;;;;;;5010947;28;20199;-78
2022/01/31 03:36:34;;;;;;;9.77;3.63;;;;;;;;;;4986196;28;20178;-78
2022/01/31 03:38:59;;;;;;;8.70;3.30;;;;;;;;;;5000991;28;20231;-78
2022/01/31 03:41:25;;;;;;;9.03;4.47;;;;;;;;;;4995650;28;20371;-78
2022/01/31 03:43:50;;;;;;;7.77;3.80;;;;;;;;;;4994695;28;20277;-78
2022/01/31 03:46:15;;;;;;;7.03;3.63;;;;;;;;;;4994242;28;20190;-78
2022/01/31 03:48:41;;;;;;;9.37;2.87;;;;;;;;;;4994859;28;20183;-78
2022/01/31 03:51:06;;;;;;;8.20;3.57;;;;;;;;;;4994702;28;20179;-78
2022/01/31 03:53:31;;;;;;;7.33;3.03;;;;;;;;;;5013217;28;20190;-78
2022/01/31 03:55:57;;;;;;;5.87;3.70;;;;;;;;;;4995181;28;20273;-77
2022/01/31 03:58:22;;;;;;;3.87;3.03;;;;;;;;;;4996666;28;20175;-77
2022/01/31 04:00:47;;;;;;;7.97;4.00;;;;;;;;;;4994786;28;20234;-77
2022/01/31 04:03:12;;;;;;;4.73;3.47;;;;;;;;;;4995643;28;20275;-77
2022/01/31 04:05:38;;;;;;;8.87;3.40;;;;;;;;;;4996415;28;20390;-77
2022/01/31 04:08:07;;;;;;;7.27;3.00;;;;;;;;;;4992334;28;20186;-77
2022/01/31 04:10:32;;;;;;;7.33;3.23;;;;;;;;;;4993046;28;20175;-77
2022/01/31 04:12:57;;;;;;;9.07;2.43;;;;;;;;;;5011294;28;20175;-77
2022/01/31 04:15:23;;;;;;;9.93;3.53;;;;;;;;;;4994533;28;20214;-76
2022/01/31 04:17:48;;;;;;;10.90;3.97;;;;;;;;;;4994353;28;20210;-76
2022/01/31 04:20:14;;;;;;;10.80;4.50;;;;;;;;;;4994297;28;20222;-76
2022/01/31 04:22:48;;;;;;;5.60;2.80;;;;;;;;;;4993133;28;20412;-76
2022/01/31 04:25:28;;;;;;;6.90;2.73;;;;;;;;;;4995735;28;20203;-76
2022/01/31 04:28:01;;;;;;;5.47;3.27;;;;;;;;;;4991857;28;20187;-76
2022/01/31 04:30:26;;;;;;;7.70;2.90;;;;;;;;;;4994111;28;20254;-76
2022/01/31 04:32:51;;;;;;;9.50;2.90;;;;;;;;;;4994037;28;20271;-76
2022/01/31 04:35:17;;;;;;;4.50;2.50;;;;;;;;;;4992546;28;20190;-76
2022/01/31 04:37:42;;;;;;;5.83;2.90;;;;;;;;;;4988891;28;20191;-76
2022/01/31 04:40:13;;;;;;;8.00;3.37;;;;;;;;;;5009030;28;20495;-76
2022/01/31 04:42:38;;;;;;;5.93;3.03;;;;;;;;;;5031190;28;20189;-76
2022/01/31 04:45:04;;;;;;;4.27;2.77;;;;;;;;;;5011309;28;20203;-76
2022/01/31 04:47:29;;;;;;;4.67;2.83;;;;;;;;;;5013359;28;20177;-76
2022/01/31 04:49:54;;;;;;;10.77;3.07;;;;;;;;;;5008676;28;20182;-76
2022/01/31 04:52:19;;;;;;;11.83;3.63;;;;;;;;;;5014407;28;20277;-76
2022/01/31 04:54:44;;;;;;;7.40;3.97;;;;;;;;;;5032608;28;20270;-76
2022/01/31 04:57:10;;;;;;;6.13;3.58;;;;;;;;;;5011963;28;20182;-76
2022/01/31 04:59:41;;;;;;;9.23;3.37;;;;;;;;;;5030227;28;20202;-76
2022/01/31 05:02:06;;;;;;;9.97;3.73;;;;;;;;;;5013143;28;20190;-75
2022/01/31 05:04:31;;;;;;;7.77;3.40;;;;;;;;;;5004544;28;20210;-76
2022/01/31 05:06:57;;;;;;;5.70;3.90;;;;;;;;;;5032839;28;20207;-76
2022/01/31 05:09:22;;;;;;;10.30;4.87;;;;;;;;;;5031794;28;20175;-75
2022/01/31 05:11:48;;;;;;;7.77;4.83;;;;;;;;;;5015026;28;20223;-75
2022/01/31 05:14:15;;;;;;;10.57;4.80;;;;;;;;;;5005924;28;20262;-76
2022/01/31 05:16:41;;;;;;;12.47;4.83;;;;;;;;;;5038585;28;20226;-75
2022/01/31 05:19:06;;;;;;;10.97;4.60;;;;;;;;;;5011172;28;20218;-76
2022/01/31 05:21:31;;;;;;;8.87;5.00;;;;;;;;;;5010410;28;20178;-75
2022/01/31 05:23:56;;;;;;;11.47;4.60;;;;;;;;;;5012848;28;20198;-75
2022/01/31 05:26:22;;;;;;;6.30;3.80;;;;;;;;;;5013031;28;20170;-76
2022/01/31 05:28:47;;;;;;;5.97;4.30;;;;;;;;;;5012144;28;20175;-76
2022/01/31 05:31:12;;;;;;;8.60;4.43;;;;;;;;;;5014217;28;20225;-75
2022/01/31 05:33:37;;;;;;;12.17;4.50;;;;;;;;;;5013148;28;20270;-76
2022/01/31 05:36:02;;;;;;;10.60;4.13;;;;;;;;;;5012910;28;20213;-76
2022/01/31 05:38:28;;;;;;;7.37;4.33;;;;;;;;;;5016002;28;20188;-76
2022/01/31 05:40:53;;;;;;;9.90;4.60;;;;;;;;;;5022171;28;20170;-76
2022/01/31 05:43:19;;;;;;;8.17;5.10;;;;;;;;;;5006017;28;20183;-76
2022/01/31 05:45:44;;;;;;;9.67;5.63;;;;;;;;;;5008631;28;20237;-76
2022/01/31 05:48:09;;;;;;;6.90;3.50;;;;;;;;;;5017020;28;20213;-76
2022/01/31 05:50:35;;;;;;;5.80;3.90;;;;;;;;;;5035546;28;20266;-76
2022/01/31 05:53:00;;;;;;;7.40;3.70;;;;;;;;;;5021516;28;20181;-76
2022/01/31 05:55:25;;;;;;;11.43;7.17;;;;;;;;;;5053276;28;20174;-76
2022/01/31 05:57:50;;;;;;;8.63;4.83;;;;;;;;;;5014272;28;20179;-76
2022/01/31 06:00:16;;;;;;;6.03;3.50;;;;;;;;;;5032876;28;20275;-76
2022/01/31 06:02:41;;;;;;;9.77;4.10;;;;;;;;;;5012143;28;20269;-76
2022/01/31 06:05:06;;;;;;;8.73;4.03;;;;;;;;;;5009970;28;20285;-76
2022/01/31 06:07:31;;;;;;;5.20;3.07;;;;;;;;;;5016048;28;20294;-76
2022/01/31 06:09:57;;;;;;;9.53;5.20;;;;;;;;;;5033913;28;20179;-76
2022/01/31 06:12:22;;;;;;;6.37;3.40;;;;;;;;;;5020021;28;20269;-76
2022/01/31 06:14:48;;;;;;;8.53;3.77;;;;;;;;;;5030686;28;20194;-76
2022/01/31 06:17:14;;;;;;;7.47;3.67;;;;;;;;;;5016243;28;20186;-77
2022/01/31 06:19:39;;;;;;;9.80;3.83;;;;;;;;;;5032988;28;20237;-76
2022/01/31 06:22:05;;;;;;;8.83;4.53;;;;;;;;;;5015741;28;20179;-76
2022/01/31 06:24:30;;;;;;;6.07;4.73;;;;;;;;;;5016427;28;20198;-76
2022/01/31 06:26:57;;;;;;;10.23;4.73;;;;;;;;;;5034079;28;20490;-76
2022/01/31 06:29:23;;;;;;;9.50;4.37;;;;;;;;;;5031589;28;20256;-77
2022/01/31 06:31:48;;;;;;;7.87;5.00;;;;;;;;;;5016207;28;20171;-77
2022/01/31 06:34:14;;;;;;;6.47;4.03;;;;;;;;;;5016975;28;20233;-77
2022/01/31 06:36:39;;;;;;;6.30;4.13;;;;;;;;;;5015456;28;20224;-77
2022/01/31 06:39:04;;;;;;;7.47;3.70;;;;;;;;;;5008693;28;20261;-77
2022/01/31 06:41:32;;;;;;;6.53;4.60;;;;;;;;;;5010116;28;20660;-77
2022/01/31 06:43:57;;;;;;;5.93;3.67;;;;;;;;;;4996881;28;20229;-77
2022/01/31 06:46:23;;;;;;;4.60;4.17;;;;;;;;;;4995368;28;20181;-77
2022/01/31 06:48:48;;;;;;;6.40;3.70;;;;;;;;;;4996433;28;20183;-76
2022/01/31 06:51:13;;;;;;;4.67;3.17;;;;;;;;;;4996123;28;20179;-76
2022/01/31 06:53:40;;;;;;;4.30;2.40;;;;;;;;;;4994917;28;20183;-77
2022/01/31 06:56:05;;;;;;;4.60;3.97;;;;;;;;;;4996326;28;20229;-77
2022/01/31 06:58:30;;;;;;;4.43;2.80;;;;;;;;;;4995263;28;20210;-77
2022/01/31 07:00:57;;;;;;;3.00;2.70;;;;;;;;;;4994554;28;20183;-76
2022/01/31 07:03:22;;;;;;;2.90;2.70;;;;;;;;;;4997983;28;20182;-76
2022/01/31 07:05:47;;;;;;;4.00;2.63;;;;;;;;;;4995787;28;20202;-76
2022/01/31 07:08:13;;;;;;;3.23;2.80;;;;;;;;;;4993776;28;20182;-76
2022/01/31 07:10:39;;;;;;;5.87;2.77;;;;;;;;;;5009633;28;20180;-77
2022/01/31 07:13:13;;;;;;;3.20;2.67;;;;;;;;;;4991474;28;20177;-77
2022/01/31 07:15:42;;;;;;;2.43;1.80;;;;;;;;;;5077469;23;20241;-76
2022/01/31 07:18:08;;;;;;;3.27;2.97;;;;;;;;;;5050038;28;20177;-76
2022/01/31 07:20:39;;;;;;;3.90;2.70;;;;;;;;;;5069424;28;20186;-76
2022/01/31 07:23:10;;;;;;;2.40;2.20;;;;;;;;;;5053164;28;20183;-77
2022/01/31 07:25:36;;;;;;;5.27;2.80;;;;;;;;;;5050995;28;20197;-76
2022/01/31 07:28:02;;;;;;;4.43;3.67;;;;;;;;;;5048585;28;20181;-77
2022/01/31 07:30:27;;;;;;;2.23;1.67;;;;;;;;;;5064680;28;20169;-76
2022/01/31 07:32:53;;;;;;;2.20;2.00;;;;;;;;;;5051203;28;20451;-76
2022/01/31 07:35:18;;;;;;;1.50;1.40;;;;;;;;;;5029308;28;20178;-77
2022/01/31 07:37:43;;;;;;;1.90;1.80;;;;;;;;;;5030843;28;20269;-77
2022/01/31 07:40:09;;;;;;;1.70;1.60;;;;;;;;;;5030487;28;20187;-77
2022/01/31 07:42:34;;;;;;;1.43;1.33;;;;;;;;;;5034128;28;20236;-77
2022/01/31 07:45:00;;;;;;;2.67;1.60;;;;;;;;;;5031152;28;20234;-77
2022/01/31 07:47:25;;;;;;;1.17;1.10;;;;;;;;;;5031917;28;20290;-76
2022/01/31 07:49:53;;;;;;;1.30;1.20;;;;;;;;;;5032875;28;20170;-76
2022/01/31 07:52:18;;;;;;;1.60;1.50;;;;;;;;;;5026572;28;20173;-77
2022/01/31 07:54:44;;;;;;;1.30;1.23;;;;;;;;;;5027675;28;20186;-77
2022/01/31 07:57:10;;;;;;;1.60;1.50;;;;;;;;;;5049987;28;20232;-77
2022/01/31 07:59:35;;;;;;;3.03;1.30;;;;;;;;;;5046960;28;20185;-77
2022/01/31 08:02:00;;;;;;;1.23;1.13;;;;;;;;;;5032486;28;20175;-77
2022/01/31 08:04:25;;;;;;;1.17;1.07;;;;;;;;;;5027517;28;20233;-77
2022/01/31 08:06:50;;;;;;;2.00;1.80;;;;;;;;;;5026502;28;20174;-77
2022/01/31 08:09:16;;;;;;;2.93;1.73;;;;;;;;;;5047675;28;20206;-77
2022/01/31 08:11:41;;;;;;;2.43;2.23;;;;;;;;;;5027244;28;20232;-77
2022/01/31 08:14:08;;;;;;;2.80;2.13;;;;;;;;;;5028091;28;20185;-77
2022/01/31 08:16:34;;;;;;;2.83;2.00;;;;;;;;;;5030948;28;20209;-77
2022/01/31 08:18:59;;;;;;;2.30;2.10;;;;;;;;;;5030130;28;20182;-77
2022/01/31 08:21:24;;;;;;;2.30;2.10;;;;;;;;;;5028305;28;20189;-78
2022/01/31 08:23:50;;;;;;;5.07;2.23;;;;;;;;;;5029020;28;20182;-78
2022/01/31 08:26:17;;;;;;;2.33;2.13;;;;;;;;;;5023793;28;20173;-77
2022/01/31 08:28:46;;;;;;;4.07;2.43;;;;;;;;;;5025331;28;20265;-78
2022/01/31 08:35:47;;;;;;;3.60;2.00;;;;;;;;;;5048837;28;20224;-78
2022/01/31 08:36:23;;;;;;;3.57;3.00;;;;;;;;;;5034320;28;20220;-77
2022/01/31 08:38:48;;;;;;;3.77;2.70;;;;;;;;;;5030702;28;20170;-78
2022/01/31 08:41:14;;;;;;;5.07;3.10;;;;;;;;;;5032015;28;20256;-78
2022/01/31 08:43:40;;;;;;;3.13;2.83;;;;;;;;;;5043793;28;20450;-77
2022/01/31 08:46:05;;;;;;;3.10;2.80;;;;;;;;;;5041495;28;20206;-78
2022/01/31 08:48:31;;;;;;;3.47;2.90;;;;;;;;;;5029039;28;20175;-77
2022/01/31 08:50:56;;;;;;;4.30;2.87;;;;;;;;;;5027515;28;20185;-78
2022/01/31 08:53:22;;;;;;;5.43;3.70;;;;;;;;;;5029463;28;20184;-78
2022/01/31 08:55:49;;;;;;;2.50;2.27;;;;;;;;;;5029337;28;20186;-78
2022/01/31 08:58:14;;;;;;;4.57;2.90;;;;;;;;;;5041675;28;20182;-78
2022/01/31 09:00:40;;;;;;;5.80;3.50;;;;;;;;;;5027209;28;20201;-78
2022/01/31 09:05:37;;;;;;;3.67;3.33;;;;;;;;;;5045791;28;20271;-78
2022/01/31 09:08:02;;;;;;;6.13;3.47;;;;;;;;;;5023747;28;20178;-78
2022/01/31 09:10:27;;;;;;;3.43;3.13;;;;;;;;;;5021644;28;20213;-78
2022/01/31 09:12:53;;;;;;;4.43;3.20;;;;;;;;;;5030466;28;20177;-78
2022/01/31 09:15:18;;;;;;;4.83;3.17;;;;;;;;;;5028281;28;20237;-78
2022/01/31 09:17:43;;;;;;;4.23;3.80;;;;;;;;;;5028575;28;20182;-78
2022/01/31 09:20:09;;;;;;;4.13;3.13;;;;;;;;;;5030025;28;20179;-79
2022/01/31 09:22:34;;;;;;;5.47;3.60;;;;;;;;;;5027849;28;20182;-79
2022/01/31 09:24:59;;;;;;;3.80;3.13;;;;;;;;;;5032694;28;20206;-79
2022/01/31 09:27:25;;;;;;;4.40;3.10;;;;;;;;;;5030430;28;20180;-79
2022/01/31 09:29:50;;;;;;;5.07;2.90;;;;;;;;;;5045770;28;20171;-80
2022/01/31 09:32:20;;;;;;;8.77;3.90;;;;;;;;;;5030079;28;20178;-80
2022/01/31 09:34:45;;;;;;;4.20;2.77;;;;;;;;;;5022714;28;20199;-80
2022/01/31 09:37:11;;;;;;;5.50;4.73;;;;;;;;;;5030384;28;20181;-80
2022/01/31 09:39:36;;;;;;;4.90;3.00;;;;;;;;;;5027791;28;20179;-79
2022/01/31 09:42:03;;;;;;;3.60;3.30;;;;;;;;;;5025075;28;20269;-79
2022/01/31 09:47:05;;;;;;;5.50;3.40;;;;;;;;;;5046172;28;20192;-79
2022/01/31 09:49:30;;;;;;;5.10;3.23;;;;;;;;;;5037410;28;20166;-79
2022/01/31 09:51:56;;;;;;;5.60;3.77;;;;;;;;;;5032624;28;20228;-79
2022/01/31 09:54:24;;;;;;;5.57;3.60;;;;;;;;;;5021302;28;20170;-79
2022/01/31 09:56:49;;;;;;;3.47;3.07;;;;;;;;;;5022981;28;20212;-79
2022/01/31 09:59:15;;;;;;;5.30;3.27;;;;;;;;;;5024977;28;20174;-79
2022/01/31 10:01:43;;;;;;;4.07;3.03;;;;;;;;;;5021586;28;20190;-80
2022/01/31 10:04:18;;;;;;;5.60;2.60;;;;;;;;;;5029672;28;20209;-79
2022/01/31 10:06:44;;;;;;;3.90;3.50;;;;;;;;;;5025190;28;20177;-79
2022/01/31 10:09:19;;;;;;;5.03;3.47;;;;;;;;;;5048235;28;20178;-79
2022/01/31 10:12:05;;;;;;;4.27;3.60;;;;;;;;;;5022791;28;20222;-79
2022/01/31 10:17:26;;;;;;;10.27;6.37;;;;;;;;;;5049361;28;20193;-80
2022/01/31 10:19:53;;;;;;;7.73;3.93;;;;;;;;;;5040150;28;20178;-80
2022/01/31 10:22:19;;;;;;;6.10;4.97;;;;;;;;;;5030439;28;20185;-80
2022/01/31 10:24:45;;;;;;;3.73;3.37;;;;;;;;;;5023413;28;20301;-80
2022/01/31 10:27:16;;;;;;;4.47;3.57;;;;;;;;;;5028947;28;20181;-80
2022/01/31 10:29:42;;;;;;;4.53;3.13;;;;;;;;;;5026094;28;20214;-80
2022/01/31 10:32:22;;;;;;;6.13;3.47;;;;;;;;;;5024118;28;20175;-80
2022/01/31 10:34:53;;;;;;;3.47;2.90;;;;;;;;;;5033786;28;20269;-80
2022/01/31 10:37:20;;;;;;;4.50;3.23;;;;;;;;;;5025103;28;20185;-80
2022/01/31 10:50:46;;;;;;;4.13;2.93;;;;;;;;;;5050375;28;20275;-80
2022/01/31 10:53:11;;;;;;;3.93;2.47;;;;;;;;;;5033670;28;20174;-79
2022/01/31 10:55:37;;;;;;;5.53;3.33;;;;;;;;;;5027136;28;20185;-80
2022/01/31 10:58:09;;;;;;;5.20;3.43;;;;;;;;;;5035195;28;20182;-80
2022/01/31 11:00:35;;;;;;;5.23;3.43;;;;;;;;;;5033704;28;20196;-79
2022/01/31 11:03:20;;;;;;;5.20;3.00;;;;;;;;;;5029982;28;20174;-79
2022/01/31 11:05:48;;;;;;;3.17;2.87;;;;;;;;;;5027716;28;20198;-79
2022/01/31 11:08:14;;;;;;;6.07;2.60;;;;;;;;;;5028544;28;20177;-79
2022/01/31 11:10:39;;;;;;;5.73;2.73;;;;;;;;;;5031960;28;20805;-79
2022/01/31 11:13:04;;;;;;;3.20;2.90;;;;;;;;;;5033070;28;20204;-79
2022/01/31 11:15:30;;;;;;;3.77;2.70;;;;;;;;;;5049189;28;20232;-79
2022/01/31 11:17:58;;;;;;;3.67;2.07;;;;;;;;;;5034337;28;20178;-79
2022/01/31 11:20:24;;;;;;;4.83;2.73;;;;;;;;;;5031789;28;20178;-78
2022/01/31 11:22:55;;;;;;;4.97;2.60;;;;;;;;;;5032565;28;20201;-79
2022/01/31 11:25:22;;;;;;;3.53;2.53;;;;;;;;;;5047614;28;20218;-78
2022/01/31 11:27:48;;;;;;;8.57;2.67;;;;;;;;;;5028433;28;20178;-78
2022/01/31 11:30:15;;;;;;;3.63;3.07;;;;;;;;;;5032090;28;20198;-78
2022/01/31 11:32:41;;;;;;;4.80;2.90;;;;;;;;;;5044786;28;20265;-78
2022/01/31 11:35:10;;;;;;;4.00;3.10;;;;;;;;;;5040544;28;20533;-79
2022/01/31 11:37:36;;;;;;;4.53;2.47;;;;;;;;;;5029269;28;20178;-78
2022/01/31 11:40:03;;;;;;;3.87;2.33;;;;;;;;;;5029036;28;20204;-78
2022/01/31 11:42:29;;;;;;;3.33;2.70;;;;;;;;;;5033416;28;20187;-78
2022/01/31 11:45:01;;;;;;;2.63;2.20;;;;;;;;;;5045992;28;20201;-79
2022/01/31 11:47:28;;;;;;;5.13;2.10;;;;;;;;;;5021752;28;20174;-78
2022/01/31 11:49:53;;;;;;;4.20;2.13;;;;;;;;;;5030356;28;20179;-79
2022/01/31 11:52:19;;;;;;;4.27;2.03;;;;;;;;;;5030156;28;20238;-79
2022/01/31 11:54:45;;;;;;;3.43;2.30;;;;;;;;;;5027574;28;20202;-79
2022/01/31 11:57:12;;;;;;;2.33;1.93;;;;;;;;;;5032623;28;20178;-79
2022/01/31 11:59:37;;;;;;;3.10;2.00;;;;;;;;;;5031296;28;20174;-79
2022/01/31 12:02:02;;;;;;;6.83;2.03;;;;;;;;;;5050138;28;20174;-79
2022/01/31 12:04:32;;;;;;;2.07;1.93;;;;;;;;;;5022946;28;20210;-79
2022/01/31 12:06:57;;;;;;;6.67;2.23;;;;;;;;;;5029404;28;20212;-79
2022/01/31 12:09:25;;;;;;;3.83;2.33;;;;;;;;;;5025928;28;20274;-79
2022/01/31 12:11:55;;;;;;;4.60;2.53;;;;;;;;;;5031188;28;20194;-78
2022/01/31 12:14:26;;;;;;;7.80;3.27;;;;;;;;;;5026640;28;20181;-79
2022/01/31 12:17:14;;;;;;;7.60;2.73;;;;;;;;;;5028685;28;20202;-78
2022/01/31 12:22:07;;;;;;;6.53;2.87;;;;;;;;;;5050492;28;20175;-79
2022/01/31 12:24:33;;;;;;;4.33;2.67;;;;;;;;;;5047288;28;20202;-79
2022/01/31 12:26:58;;;;;;;6.53;2.93;;;;;;;;;;5047015;28;20169;-79
2022/01/31 12:29:25;;;;;;;3.97;2.50;;;;;;;;;;5016823;28;20193;-79
2022/01/31 12:31:58;;;;;;;3.37;2.37;;;;;;;;;;5029199;28;20284;-79
2022/01/31 12:34:23;;;;;;;2.70;2.43;;;;;;;;;;5031724;28;20202;-79
2022/01/31 12:36:52;;;;;;;2.25;2.03;;;;;;;;;;5028187;28;20200;-78
2022/01/31 12:39:40;;;;;;;3.57;1.93;;;;;;;;;;5026208;28;20183;-79
2022/01/31 12:42:41;;;;;;;3.37;2.63;;;;;;;;;;5034674;28;20204;-79
2022/01/31 12:45:07;;;;;;;4.17;2.50;;;;;;;;;;5028473;28;20209;-79
2022/01/31 12:47:32;;;;;;;2.40;2.07;;;;;;;;;;5026322;28;20243;-79
2022/01/31 12:50:16;;;;;;;5.87;2.70;;;;;;;;;;5037703;28;20186;-80
2022/01/31 12:52:42;;;;;;;4.13;3.00;;;;;;;;;;5031227;28;20182;-79
2022/01/31 12:55:08;;;;;;;6.60;3.40;;;;;;;;;;5029620;28;20213;-80
2022/01/31 12:57:34;;;;;;;10.87;3.67;;;;;;;;;;5031692;28;20178;-79
2022/01/31 12:59:59;;;;;;;7.83;3.70;;;;;;;;;;5029086;28;20174;-79
2022/01/31 13:02:25;;;;;;;4.03;3.20;;;;;;;;;;5023553;28;20182;-79
2022/01/31 13:04:50;;;;;;;10.47;6.20;;;;;;;;;;5029633;28;20237;-79
2022/01/31 13:07:18;;;;;;;3.63;2.40;;;;;;;;;;5029386;28;20166;-80
2022/01/31 13:09:43;;;;;;;6.07;3.77;;;;;;;;;;5022707;28;20170;-79
2022/01/31 13:12:15;;;;;;;3.67;3.00;;;;;;;;;;5024966;28;20269;-80
2022/01/31 13:14:44;;;;;;;4.73;3.20;;;;;;;;;;5029666;28;20227;-80
2022/01/31 13:17:13;;;;;;;4.40;2.50;;;;;;;;;;5032935;28;20184;-80
2022/01/31 13:19:40;;;;;;;4.10;2.23;;;;;;;;;;5032497;28;20182;-80
2022/01/31 13:22:12;;;;;;;4.97;2.70;;;;;;;;;;5021751;28;20193;-80
2022/01/31 13:24:40;;;;;;;5.00;2.57;;;;;;;;;;5031855;28;20218;-80
2022/01/31 13:27:07;;;;;;;3.10;2.70;;;;;;;;;;5030006;28;20201;-80
2022/01/31 13:29:34;;;;;;;3.53;2.77;;;;;;;;;;5029418;28;20177;-79
2022/01/31 13:31:59;;;;;;;6.33;2.67;;;;;;;;;;5024800;28;20178;-80
2022/01/31 13:34:34;;;;;;;2.53;2.27;;;;;;;;;;5030059;28;20234;-79
2022/01/31 13:36:59;;;;;;;4.47;2.73;;;;;;;;;;5029653;28;20174;-80
2022/01/31 13:39:24;;;;;;;5.10;2.80;;;;;;;;;;5027190;28;20182;-80
2022/01/31 13:41:49;;;;;;;4.63;2.73;;;;;;;;;;5049096;28;20190;-80
2022/01/31 13:44:15;;;;;;;6.37;2.77;;;;;;;;;;5029992;28;20209;-79
2022/01/31 13:46:48;;;;;;;3.87;2.63;;;;;;;;;;5030565;28;20189;-79
2022/01/31 13:49:18;;;;;;;2.30;1.90;;;;;;;;;;5026375;28;20284;-79
2022/01/31 13:51:48;;;;;;;2.70;1.97;;;;;;;;;;5047828;28;20177;-79
2022/01/31 13:54:18;;;;;;;7.27;2.83;;;;;;;;;;5029038;28;20182;-79
2022/01/31 13:56:47;;;;;;;3.93;2.50;;;;;;;;;;5047241;28;20367;-79
2022/01/31 13:59:14;;;;;;;6.00;2.50;;;;;;;;;;5027126;28;20189;-79
2022/01/31 14:01:39;;;;;;;3.23;2.10;;;;;;;;;;5039711;28;20335;-79
2022/01/31 14:04:05;;;;;;;6.73;2.47;;;;;;;;;;5036659;28;20255;-79
2022/01/31 14:06:32;;;;;;;3.43;1.97;;;;;;;;;;5028631;28;20232;-79
2022/01/31 14:09:01;;;;;;;5.33;2.47;;;;;;;;;;5032630;28;20213;-80
2022/01/31 14:11:28;;;;;;;3.93;2.10;;;;;;;;;;5029795;28;20210;-79
2022/01/31 14:14:00;;;;;;;2.17;1.97;;;;;;;;;;5030383;28;20197;-80
2022/01/31 14:16:29;;;;;;;3.73;1.90;;;;;;;;;;5024584;28;20238;-79
2022/01/31 14:18:55;;;;;;;2.40;2.13;;;;;;;;;;5030850;28;20213;-79
2022/01/31 14:21:21;;;;;;;5.30;2.10;;;;;;;;;;5035577;28;20181;-79
2022/01/31 14:23:49;;;;;;;3.83;2.00;;;;;;;;;;5029692;28;20182;-79
2022/01/31 14:26:17;;;;;;;7.43;2.50;;;;;;;;;;5046603;28;20208;-79
2022/01/31 14:28:44;;;;;;;4.33;2.27;;;;;;;;;;5035896;28;20173;-78
2022/01/31 14:31:10;;;;;;;7.70;3.00;;;;;;;;;;5031355;28;20190;-79
2022/01/31 14:33:40;;;;;;;3.73;1.67;;;;;;;;;;5031139;28;20198;-78
2022/01/31 14:36:08;;;;;;;3.63;1.90;;;;;;;;;;5034757;28;20450;-78
2022/01/31 14:38:44;;;;;;;3.07;1.93;;;;;;;;;;5029790;28;20182;-79
2022/01/31 14:41:18;;;;;;;4.97;2.77;;;;;;;;;;5030702;28;20190;-78
2022/01/31 14:49:14;;;;;;;5.93;2.33;;;;;;;;;;5044254;28;20181;-78
2022/01/31 14:51:40;;;;;;;3.77;2.37;;;;;;;;;;5017898;28;20201;-78
2022/01/31 14:54:09;;;;;;;9.20;4.23;;;;;;;;;;5031046;28;20179;-78
2022/01/31 14:56:35;;;;;;;7.63;2.67;;;;;;;;;;5040965;28;20225;-78
2022/01/31 14:59:02;;;;;;;5.27;2.93;;;;;;;;;;5032844;28;20208;-79
2022/01/31 15:01:27;;;;;;;5.17;2.33;;;;;;;;;;5031211;28;20319;-78
2022/01/31 15:03:52;;;;;;;4.07;2.23;;;;;;;;;;5029919;28;20250;-78
2022/01/31 15:06:18;;;;;;;5.90;3.10;;;;;;;;;;5029373;28;20217;-78
2022/01/31 15:08:43;;;;;;;7.23;3.80;;;;;;;;;;5032824;28;20183;-78